Time;durP1;ratioP1;P1;durP2;ratioP2;P2;SDS_P1;SDS_P2;PMS_P1;PMS_P2;Temp;Humidity;BMP_temperature;BMP_pressure;BME280_temperature;BME280_humidity;BME280_pressure;Samples;Min_cycle;Max_cycle;Signal;HPM_P1;HPM_P2
2023/04/12 00:01:49;;;;;;;14.23;5.43;;;2.90;97.80;;;;;;5004532;28;20421;-75
2023/04/12 00:04:15;;;;;;;11.82;5.43;;;2.90;97.80;;;;;;5004282;28;20088;-73
2023/04/12 00:06:41;;;;;;;15.18;5.53;;;2.90;97.70;;;;;;5001532;28;20033;-73
2023/04/12 00:09:07;;;;;;;12.10;5.20;;;3.00;97.70;;;;;;5006146;28;20030;-73
2023/04/12 00:11:33;;;;;;;13.13;5.50;;;3.00;97.50;;;;;;5005302;28;20112;-78
2023/04/12 00:13:59;;;;;;;14.77;4.85;;;3.00;97.40;;;;;;5005558;28;20072;-76
2023/04/12 00:16:25;;;;;;;9.82;4.78;;;3.00;97.10;;;;;;5006135;28;20045;-73
2023/04/12 00:18:50;;;;;;;11.82;5.20;;;3.00;97.10;;;;;;5005417;28;20038;-73
2023/04/12 00:21:19;;;;;;;16.42;4.97;;;3.00;97.10;;;;;;5003848;28;20089;-73
2023/04/12 00:23:48;;;;;;;18.15;5.15;;;3.00;97.10;;;;;;5002264;28;20071;-73
2023/04/12 00:26:14;;;;;;;13.43;5.43;;;3.10;97.10;;;;;;5011557;28;20034;-75
2023/04/12 00:28:43;;;;;;;21.17;5.18;;;3.00;96.90;;;;;;5009894;28;20529;-74
2023/04/12 00:31:10;;;;;;;16.23;5.07;;;3.10;96.90;;;;;;5014602;28;20088;-73
2023/04/12 00:33:36;;;;;;;21.60;5.25;;;3.10;96.90;;;;;;5005799;28;20021;-77
2023/04/12 00:36:01;;;;;;;14.55;4.50;;;3.10;96.70;;;;;;4986654;28;20061;-76
2023/04/12 00:38:27;;;;;;;16.50;5.20;;;3.10;96.70;;;;;;5001949;28;20029;-75
2023/04/12 00:40:52;;;;;;;21.80;5.05;;;3.10;96.70;;;;;;5008842;28;20477;-76
2023/04/12 00:43:18;;;;;;;16.38;4.18;;;3.10;96.50;;;;;;5007159;28;20095;-76
2023/04/12 00:45:46;;;;;;;15.98;4.80;;;3.10;96.50;;;;;;5008823;28;20412;-79
2023/04/12 00:48:11;;;;;;;12.05;4.63;;;3.20;96.50;;;;;;5005732;28;20370;-77
2023/04/12 00:50:43;;;;;;;19.27;4.45;;;3.20;96.40;;;;;;5009441;28;20042;-73
2023/04/12 00:53:13;;;;;;;19.65;4.32;;;3.20;96.30;;;;;;5007968;28;20026;-76
2023/04/12 00:55:45;;;;;;;16.55;4.30;;;3.20;96.40;;;;;;5008422;28;20032;-74
2023/04/12 00:58:13;;;;;;;10.32;3.97;;;3.30;96.50;;;;;;5016381;28;20295;-73
2023/04/12 01:00:38;;;;;;;16.80;4.00;;;3.40;96.30;;;;;;5005451;28;20162;-73
2023/04/12 01:03:04;;;;;;;17.02;3.75;;;3.40;96.10;;;;;;5016639;28;20100;-75
2023/04/12 01:05:32;;;;;;;14.55;4.43;;;3.40;96.00;;;;;;5008455;28;20127;-73
2023/04/12 01:08:28;;;;;;;15.32;3.92;;;3.50;96.20;;;;;;5005224;28;20179;-73
2023/04/12 01:11:11;;;;;;;18.60;4.85;;;3.60;95.80;;;;;;4999457;28;20046;-78
2023/04/12 01:13:39;;;;;;;11.75;4.07;;;3.60;95.80;;;;;;5006868;28;20022;-73
2023/04/12 01:16:14;;;;;;;13.35;4.78;;;3.60;95.60;;;;;;5008972;28;20025;-75
2023/04/12 01:18:44;;;;;;;13.07;5.00;;;3.60;95.40;;;;;;5009510;28;20503;-73
2023/04/12 01:21:16;;;;;;;14.20;5.53;;;3.60;95.40;;;;;;5008524;28;20053;-72
2023/04/12 01:23:46;;;;;;;16.42;5.82;;;3.60;95.10;;;;;;5006007;28;20026;-75
2023/04/12 01:26:38;;;;;;;11.63;5.23;;;3.70;95.00;;;;;;5003328;28;20084;-81
2023/04/12 01:29:10;;;;;;;14.13;5.60;;;3.60;94.90;;;;;;5009178;28;20442;-75
2023/04/12 01:31:38;;;;;;;14.98;5.90;;;3.60;95.10;;;;;;5008388;28;20041;-74
2023/04/12 01:34:06;;;;;;;14.82;5.57;;;3.70;95.00;;;;;;5000831;28;20338;-74
2023/04/12 01:36:36;;;;;;;12.55;5.75;;;3.70;94.80;;;;;;5006976;28;20034;-73
2023/04/12 01:39:03;;;;;;;16.27;5.65;;;3.70;94.60;;;;;;5011366;28;20029;-79
2023/04/12 01:41:31;;;;;;;13.40;5.25;;;3.70;94.50;;;;;;5007300;28;20030;-74
2023/04/12 01:43:56;;;;;;;8.93;4.45;;;3.70;94.60;;;;;;5014574;28;20037;-76
2023/04/12 01:46:22;;;;;;;12.02;4.15;;;3.70;94.60;;;;;;5007377;28;20042;-73
2023/04/12 01:48:50;;;;;;;11.98;4.40;;;3.70;94.50;;;;;;5007129;28;20037;-72
2023/04/12 01:51:42;;;;;;;14.05;3.83;;;3.60;94.50;;;;;;4997101;28;20187;-75
2023/04/12 01:54:16;;;;;;;7.03;3.38;;;3.80;94.30;;;;;;5008786;28;20088;-75
2023/04/12 01:56:45;;;;;;;9.88;4.00;;;3.80;93.80;;;;;;5008520;28;20104;-74
2023/04/12 01:59:14;;;;;;;7.97;3.30;;;3.80;93.60;;;;;;5008515;28;20026;-74
2023/04/12 02:01:40;;;;;;;7.95;3.40;;;3.90;93.40;;;;;;5011642;28;20049;-73
2023/04/12 02:04:08;;;;;;;8.85;3.72;;;3.90;93.50;;;;;;5007891;28;20029;-75
2023/04/12 02:06:33;;;;;;;8.52;3.05;;;3.90;93.30;;;;;;5005413;28;20030;-75
2023/04/12 02:09:01;;;;;;;10.88;3.63;;;3.90;93.10;;;;;;5008084;28;20091;-75
2023/04/12 02:11:27;;;;;;;8.07;3.42;;;3.90;93.10;;;;;;5006978;28;20014;-76
2023/04/12 02:13:53;;;;;;;9.00;3.50;;;4.00;92.90;;;;;;5014691;28;20116;-74
2023/04/12 02:16:19;;;;;;;10.02;3.70;;;4.10;92.50;;;;;;5007459;28;20459;-74
2023/04/12 02:18:45;;;;;;;9.88;3.67;;;4.00;92.60;;;;;;5008330;28;20108;-73
2023/04/12 02:21:10;;;;;;;6.63;3.20;;;4.00;92.60;;;;;;5007229;28;20022;-73
2023/04/12 02:23:36;;;;;;;8.82;2.97;;;3.90;92.70;;;;;;5007555;28;20045;-73
2023/04/12 02:26:02;;;;;;;7.18;3.30;;;3.90;92.90;;;;;;5000924;28;20434;-73
2023/04/12 02:28:28;;;;;;;9.02;3.45;;;3.90;93.00;;;;;;5008636;28;20045;-73
2023/04/12 02:30:53;;;;;;;10.48;3.88;;;3.90;92.70;;;;;;5006729;28;20107;-73
2023/04/12 02:33:24;;;;;;;11.48;3.30;;;3.90;92.70;;;;;;5013274;28;20164;-73
2023/04/12 02:35:50;;;;;;;9.63;3.97;;;4.00;92.70;;;;;;5005871;28;20050;-79
2023/04/12 02:38:16;;;;;;;5.80;3.03;;;3.90;92.70;;;;;;5006397;28;20400;-73
2023/04/12 02:40:41;;;;;;;9.75;3.65;;;4.00;92.40;;;;;;5006882;28;20140;-73
2023/04/12 02:43:07;;;;;;;9.82;3.33;;;4.10;91.90;;;;;;5014375;28;20049;-75
2023/04/12 02:45:33;;;;;;;11.93;3.97;;;4.10;91.90;;;;;;5005878;28;20104;-74
2023/04/12 02:47:58;;;;;;;8.68;3.22;;;4.10;91.60;;;;;;4991510;28;20108;-76
2023/04/12 02:50:24;;;;;;;8.40;2.92;;;4.10;91.30;;;;;;5006453;28;20038;-73
2023/04/12 02:52:49;;;;;;;8.18;3.03;;;4.10;91.40;;;;;;5006073;28;20045;-75
2023/04/12 02:55:16;;;;;;;7.90;2.80;;;4.20;91.30;;;;;;5007296;28;20114;-73
2023/04/12 02:57:44;;;;;;;12.18;3.13;;;4.20;91.20;;;;;;5007565;28;20082;-73
2023/04/12 03:00:11;;;;;;;10.02;2.90;;;4.20;91.20;;;;;;5005741;28;20286;-74
2023/04/12 03:02:36;;;;;;;7.50;2.17;;;4.10;91.30;;;;;;5005896;28;20394;-73
2023/04/12 03:05:03;;;;;;;7.63;2.15;;;4.20;91.10;;;;;;5005297;28;20046;-76
2023/04/12 03:07:29;;;;;;;6.47;2.00;;;4.30;90.60;;;;;;5001511;28;20038;-73
2023/04/12 03:09:54;;;;;;;7.32;1.85;;;4.30;90.70;;;;;;5005574;28;20026;-73
2023/04/12 03:12:20;;;;;;;5.65;2.40;;;4.30;90.50;;;;;;5008296;28;20072;-76
2023/04/12 03:14:45;;;;;;;10.57;2.17;;;4.30;90.40;;;;;;5007024;28;20110;-74
2023/04/12 03:17:11;;;;;;;7.55;2.00;;;4.40;90.00;;;;;;5005900;28;20371;-76
2023/04/12 03:19:36;;;;;;;6.55;2.20;;;4.40;90.00;;;;;;5007263;28;20060;-73
2023/04/12 03:22:03;;;;;;;8.80;2.22;;;4.40;89.80;;;;;;5004567;28;20095;-73
2023/04/12 03:24:36;;;;;;;13.48;2.33;;;4.40;89.70;;;;;;5054092;28;20447;-75
2023/04/12 03:27:02;;;;;;;5.70;2.28;;;4.50;89.20;;;;;;5043695;28;20299;-75
2023/04/12 03:29:28;;;;;;;8.68;1.95;;;4.50;88.90;;;;;;5043972;28;20033;-73
2023/04/12 03:31:53;;;;;;;3.58;1.98;;;4.50;89.20;;;;;;5033455;28;20437;-73
2023/04/12 03:34:18;;;;;;;9.98;2.08;;;4.50;88.90;;;;;;5036558;28;20029;-75
2023/04/12 03:36:44;;;;;;;5.40;2.13;;;4.60;88.20;;;;;;5039918;28;20108;-77
2023/04/12 03:39:10;;;;;;;6.20;1.63;;;4.60;88.50;;;;;;5037030;28;20308;-78
2023/04/12 03:41:35;;;;;;;7.22;1.80;;;4.60;88.50;;;;;;5043865;28;20021;-73
2023/04/12 03:44:01;;;;;;;7.43;1.83;;;4.50;88.40;;;;;;5044012;28;20025;-75
2023/04/12 03:46:26;;;;;;;5.43;2.00;;;4.60;87.80;;;;;;5041204;28;20036;-76
2023/04/12 03:48:52;;;;;;;5.30;2.00;;;4.60;87.90;;;;;;5055645;28;20392;-76
2023/04/12 03:51:21;;;;;;;5.78;1.58;;;4.50;87.80;;;;;;5038302;28;20033;-77
2023/04/12 03:53:46;;;;;;;4.30;1.50;;;4.60;87.30;;;;;;5041774;28;20527;-78
2023/04/12 03:56:12;;;;;;;8.35;1.65;;;4.60;86.80;;;;;;5039722;28;20096;-75
2023/04/12 03:58:37;;;;;;;6.28;1.50;;;4.60;86.80;;;;;;5043284;28;20304;-75
2023/04/12 04:01:04;;;;;;;4.90;1.63;;;4.60;87.00;;;;;;5042338;28;20025;-75
2023/04/12 04:03:33;;;;;;;6.15;1.65;;;4.50;87.00;;;;;;5041184;28;20104;-79
2023/04/12 04:06:02;;;;;;;4.30;1.42;;;4.60;86.50;;;;;;5040870;28;20091;-79
2023/04/12 04:08:28;;;;;;;5.80;1.42;;;4.50;86.50;;;;;;5038662;28;20442;-75
2023/04/12 04:10:55;;;;;;;11.30;1.70;;;4.60;86.10;;;;;;5041374;28;20104;-75
2023/04/12 04:13:21;;;;;;;6.05;1.67;;;4.50;86.00;;;;;;5040289;28;20456;-75
2023/04/12 04:15:50;;;;;;;4.97;1.33;;;4.50;86.10;;;;;;5040132;28;20029;-76
2023/04/12 04:18:15;;;;;;;9.30;1.52;;;4.50;85.90;;;;;;5049597;28;20136;-76
2023/04/12 04:20:41;;;;;;;3.10;1.13;;;4.50;85.80;;;;;;5041534;28;20113;-76
2023/04/12 04:23:09;;;;;;;5.90;1.20;;;4.60;85.50;;;;;;5028532;28;20057;-76
2023/04/12 04:25:38;;;;;;;7.93;1.40;;;4.50;85.50;;;;;;5038372;28;20095;-73
2023/04/12 04:28:05;;;;;;;3.85;1.25;;;4.60;85.40;;;;;;5036509;28;20025;-79
2023/04/12 04:30:32;;;;;;;7.35;1.55;;;4.60;84.30;;;;;;5040639;28;20452;-78
2023/04/12 04:32:58;;;;;;;7.13;1.25;;;4.60;84.40;;;;;;5044843;28;20153;-77
2023/04/12 04:35:24;;;;;;;4.32;1.33;;;4.60;84.70;;;;;;5032289;28;20041;-79
2023/04/12 04:37:51;;;;;;;4.05;1.40;;;4.50;85.10;;;;;;5032846;28;20025;-77
2023/04/12 04:40:19;;;;;;;3.97;1.88;;;4.60;84.70;;;;;;5026840;28;20040;-78
2023/04/12 04:42:53;;;;;;;6.70;1.50;;;4.50;84.60;;;;;;5023379;28;20116;-84
2023/04/12 04:45:20;;;;;;;3.38;1.38;;;4.50;84.60;;;;;;5020952;28;20472;-83
2023/04/12 04:47:46;;;;;;;4.15;1.60;;;4.50;84.80;;;;;;5016581;28;20094;-83
2023/04/12 04:50:11;;;;;;;4.63;1.70;;;4.40;85.00;;;;;;5026426;28;20367;-81
2023/04/12 04:52:38;;;;;;;6.45;1.88;;;4.50;84.70;;;;;;5018962;28;20088;-82
2023/04/12 04:55:04;;;;;;;4.43;1.50;;;4.40;84.90;;;;;;5022799;28;20108;-82
2023/04/12 04:57:29;;;;;;;4.07;1.42;;;4.40;85.10;;;;;;5021197;28;20036;-82
2023/04/12 04:59:55;;;;;;;4.57;1.50;;;4.40;84.90;;;;;;5026317;28;20029;-82
2023/04/12 05:02:20;;;;;;;6.43;1.67;;;4.50;84.60;;;;;;5026328;28;20048;-84
2023/04/12 05:04:46;;;;;;;7.78;2.00;;;4.40;84.90;;;;;;5026682;28;20061;-81
2023/04/12 05:07:13;;;;;;;4.10;1.42;;;4.30;85.20;;;;;;5028863;28;20046;-82
2023/04/12 05:09:38;;;;;;;7.55;2.05;;;4.30;85.60;;;;;;5022849;28;20584;-82
2023/04/12 05:12:04;;;;;;;5.00;1.75;;;4.30;85.40;;;;;;5028766;28;20098;-82
2023/04/12 05:14:29;;;;;;;5.75;1.80;;;4.30;85.40;;;;;;5029729;28;20105;-83
2023/04/12 05:16:55;;;;;;;4.22;1.60;;;4.30;85.20;;;;;;5025082;28;20065;-82
2023/04/12 05:19:21;;;;;;;7.03;1.90;;;4.30;85.10;;;;;;5020667;28;20022;-83
2023/04/12 05:21:46;;;;;;;5.35;1.90;;;4.30;85.10;;;;;;5024490;28;20112;-83
2023/04/12 05:24:11;;;;;;;5.28;1.70;;;4.40;84.40;;;;;;5025248;28;20492;-83
2023/04/12 05:26:37;;;;;;;8.15;1.90;;;4.50;84.30;;;;;;5022295;28;20033;-84
2023/04/12 05:29:02;;;;;;;5.32;1.40;;;4.60;84.00;;;;;;5016653;28;20041;-81
2023/04/12 05:31:28;;;;;;;4.45;1.45;;;4.60;84.10;;;;;;5028430;28;20064;-81
2023/04/12 05:33:53;;;;;;;6.38;1.92;;;4.60;84.00;;;;;;5028750;28;20467;-82
2023/04/12 05:36:19;;;;;;;5.25;1.92;;;4.60;84.10;;;;;;5026795;28;20083;-78
2023/04/12 05:38:45;;;;;;;6.13;1.95;;;4.70;84.00;;;;;;5028497;28;20025;-77
2023/04/12 05:41:10;;;;;;;8.98;1.60;;;4.80;83.80;;;;;;5026912;28;20037;-77
2023/04/12 05:43:36;;;;;;;6.28;1.77;;;4.80;83.50;;;;;;5024195;28;20463;-76
2023/04/12 05:46:02;;;;;;;6.97;1.63;;;4.80;83.50;;;;;;5012857;28;20702;-81
2023/04/12 05:48:28;;;;;;;5.25;1.48;;;4.80;83.70;;;;;;5020608;28;20048;-80
2023/04/12 05:50:53;;;;;;;5.57;1.80;;;4.90;83.20;;;;;;5025459;28;20041;-80
2023/04/12 05:53:20;;;;;;;6.53;2.10;;;5.00;82.90;;;;;;5029547;28;20077;-80
2023/04/12 05:55:46;;;;;;;5.40;1.58;;;5.00;82.80;;;;;;5028547;28;20029;-82
2023/04/12 05:58:12;;;;;;;5.70;1.60;;;5.00;83.30;;;;;;5030249;28;20391;-81
2023/04/12 06:00:44;;;;;;;5.55;1.58;;;5.10;82.90;;;;;;5029848;28;20037;-81
2023/04/12 06:03:10;;;;;;;5.25;1.80;;;5.20;82.80;;;;;;5027179;28;20347;-81
2023/04/12 06:05:36;;;;;;;4.95;1.58;;;5.30;82.60;;;;;;5028795;28;20022;-81
2023/04/12 06:08:04;;;;;;;8.65;2.10;;;5.30;82.70;;;;;;5026424;28;20034;-81
2023/04/12 06:10:30;;;;;;;5.20;1.88;;;5.30;83.10;;;;;;5016175;28;20044;-82
2023/04/12 06:12:55;;;;;;;3.95;1.77;;;5.40;81.80;;;;;;5021519;28;20025;-81
2023/04/12 06:15:21;;;;;;;4.47;1.60;;;5.50;81.80;;;;;;5023835;28;20454;-81
2023/04/12 06:17:46;;;;;;;4.43;1.70;;;5.60;81.80;;;;;;5022262;28;20467;-82
2023/04/12 06:20:12;;;;;;;4.93;1.58;;;5.80;82.20;;;;;;5023480;28;20118;-81
2023/04/12 06:22:37;;;;;;;7.25;1.70;;;6.10;81.60;;;;;;5021849;28;20104;-81
2023/04/12 06:25:03;;;;;;;4.38;1.80;;;6.30;81.00;;;;;;5021573;28;20108;-81
2023/04/12 06:27:29;;;;;;;4.82;1.60;;;6.40;80.30;;;;;;5020778;28;20030;-81
2023/04/12 06:29:55;;;;;;;5.30;2.17;;;6.40;80.30;;;;;;5020311;28;20033;-83
2023/04/12 06:32:20;;;;;;;5.35;1.98;;;6.40;79.90;;;;;;5018474;28;20059;-80
2023/04/12 06:34:46;;;;;;;5.10;1.42;;;6.50;79.90;;;;;;5018368;28;20048;-78
2023/04/12 06:37:11;;;;;;;4.07;1.45;;;6.50;79.70;;;;;;5012920;28;20416;-79
2023/04/12 06:39:37;;;;;;;5.97;1.40;;;6.60;79.10;;;;;;5020489;28;20041;-80
2023/04/12 06:42:02;;;;;;;6.00;1.45;;;6.70;78.50;;;;;;5017608;28;20133;-80
2023/04/12 06:44:28;;;;;;;7.32;1.63;;;6.80;79.20;;;;;;5018099;28;21716;-82
2023/04/12 06:46:53;;;;;;;8.60;1.73;;;6.90;78.70;;;;;;5014355;28;20022;-77
2023/04/12 06:49:19;;;;;;;7.25;1.58;;;6.90;78.70;;;;;;5020285;28;20061;-78
2023/04/12 06:51:45;;;;;;;4.43;1.48;;;7.00;79.10;;;;;;5015114;28;20452;-80
2023/04/12 06:54:11;;;;;;;4.85;1.65;;;7.10;78.60;;;;;;5020648;28;20027;-82
2023/04/12 06:56:37;;;;;;;7.90;3.90;;;7.10;77.80;;;;;;5028698;28;20453;-77
2023/04/12 06:59:03;;;;;;;6.13;1.83;;;7.30;78.50;;;;;;5025059;28;20060;-82
2023/04/12 07:01:28;;;;;;;6.32;1.58;;;7.30;78.30;;;;;;5022786;28;20112;-73
2023/04/12 07:03:54;;;;;;;5.22;1.75;;;7.50;77.60;;;;;;5018441;28;20265;-72
2023/04/12 07:06:19;;;;;;;4.35;1.35;;;7.50;76.10;;;;;;5013668;28;20076;-75
2023/04/12 07:08:45;;;;;;;6.30;1.30;;;7.60;76.30;;;;;;5024890;28;20103;-72
2023/04/12 07:11:10;;;;;;;4.03;1.40;;;7.60;77.50;;;;;;5024435;28;20489;-72
2023/04/12 07:13:36;;;;;;;7.25;1.60;;;7.60;76.60;;;;;;5025969;28;20100;-72
2023/04/12 07:16:02;;;;;;;5.60;1.40;;;7.60;75.60;;;;;;5023418;28;20029;-73
2023/04/12 07:18:27;;;;;;;5.07;1.45;;;7.50;76.60;;;;;;5014793;28;20326;-73
2023/04/12 07:20:55;;;;;;;5.05;1.42;;;7.50;76.50;;;;;;5007299;28;20034;-73
2023/04/12 07:23:22;;;;;;;6.57;1.40;;;7.40;76.70;;;;;;5019080;28;20037;-72
2023/04/12 07:25:47;;;;;;;5.47;1.30;;;7.50;76.20;;;;;;5020205;28;20104;-73
2023/04/12 07:28:13;;;;;;;5.35;1.42;;;7.50;76.90;;;;;;5014725;28;20160;-73
2023/04/12 07:30:39;;;;;;;8.13;1.63;;;7.40;77.20;;;;;;5022758;28;20044;-72
2023/04/12 07:33:05;;;;;;;5.78;1.80;;;7.50;77.30;;;;;;5025745;28;20034;-73
2023/04/12 07:35:31;;;;;;;5.70;1.30;;;7.50;77.20;;;;;;5026001;28;20358;-73
2023/04/12 07:37:57;;;;;;;7.82;1.33;;;7.50;78.00;;;;;;5012114;28;20038;-72
2023/04/12 07:40:23;;;;;;;7.68;1.75;;;7.50;77.30;;;;;;5011948;28;20048;-72
2023/04/12 07:42:49;;;;;;;4.38;1.58;;;7.50;77.80;;;;;;5031350;28;20045;-74
2023/04/12 07:45:14;;;;;;;2.50;1.10;;;7.50;77.30;;;;;;5027201;28;20030;-72
2023/04/12 07:47:40;;;;;;;4.65;1.50;;;7.60;77.30;;;;;;5018812;28;20221;-72
2023/04/12 07:50:06;;;;;;;4.75;1.48;;;7.50;77.30;;;;;;5026149;28;20065;-73
2023/04/12 07:52:32;;;;;;;5.25;1.60;;;7.60;77.60;;;;;;5018405;28;20583;-73
2023/04/12 07:54:57;;;;;;;6.30;1.52;;;7.60;77.20;;;;;;5021102;28;20132;-72
2023/04/12 07:57:23;;;;;;;4.25;1.30;;;7.70;76.90;;;;;;5018745;28;20038;-72
2023/04/12 07:59:48;;;;;;;4.43;1.63;;;7.70;76.90;;;;;;5017289;28;20445;-73
2023/04/12 08:02:18;;;;;;;11.32;1.40;;;7.80;76.90;;;;;;5021613;28;20108;-72
2023/04/12 08:04:44;;;;;;;6.88;2.00;;;7.90;76.80;;;;;;5026180;28;20025;-72
2023/04/12 08:07:10;;;;;;;6.25;1.23;;;8.00;77.10;;;;;;5023329;28;20025;-73
2023/04/12 08:09:35;;;;;;;7.07;1.42;;;8.10;75.70;;;;;;5025188;28;20048;-72
2023/04/12 08:12:02;;;;;;;4.25;1.40;;;8.20;76.20;;;;;;5030288;28;20052;-73
2023/04/12 08:14:27;;;;;;;4.68;1.15;;;8.30;75.70;;;;;;5016649;28;20040;-74
2023/04/12 08:16:53;;;;;;;4.85;1.60;;;8.40;76.00;;;;;;5025588;28;20093;-73
2023/04/12 08:19:19;;;;;;;4.18;1.08;;;8.40;75.30;;;;;;5026685;28;20057;-74
2023/04/12 08:21:45;;;;;;;3.97;1.40;;;8.50;75.10;;;;;;5026389;28;20084;-74
2023/04/12 08:24:11;;;;;;;6.13;1.33;;;8.70;75.30;;;;;;5027791;28;20142;-74
2023/04/12 08:26:37;;;;;;;3.38;1.23;;;8.80;74.80;;;;;;5028111;28;20029;-73
2023/04/12 08:29:02;;;;;;;5.15;1.40;;;9.00;74.30;;;;;;5030041;28;20047;-73
2023/04/12 08:31:28;;;;;;;5.00;1.35;;;9.20;73.70;;;;;;5029853;28;20097;-73
2023/04/12 08:33:53;;;;;;;5.30;1.48;;;9.40;73.60;;;;;;5030095;28;20026;-74
2023/04/12 08:36:19;;;;;;;5.43;1.30;;;9.50;73.60;;;;;;5028218;28;20394;-74
2023/04/12 08:38:45;;;;;;;7.82;1.27;;;9.60;72.40;;;;;;5018310;28;20127;-73
2023/04/12 08:41:10;;;;;;;4.95;1.30;;;9.60;73.10;;;;;;5028161;28;20084;-73
2023/04/12 08:43:40;;;;;;;9.48;1.48;;;9.70;72.80;;;;;;5030138;28;20405;-73
2023/04/12 08:46:06;;;;;;;4.90;1.25;;;9.80;71.90;;;;;;5029406;28;20018;-73
2023/04/12 08:48:32;;;;;;;6.90;1.40;;;9.70;72.60;;;;;;5028191;28;20469;-73
2023/04/12 08:50:59;;;;;;;4.57;1.55;;;9.90;72.10;;;;;;5027269;28;20048;-74
2023/04/12 08:53:25;;;;;;;5.43;1.50;;;10.00;71.00;;;;;;5014764;28;20424;-73
2023/04/12 08:55:51;;;;;;;6.28;1.45;;;10.10;71.60;;;;;;5028114;28;20087;-72
2023/04/12 08:58:16;;;;;;;8.18;1.35;;;10.10;71.00;;;;;;5029826;28;20029;-73
2023/04/12 09:00:44;;;;;;;6.45;1.40;;;10.10;71.60;;;;;;5028719;28;20049;-72
2023/04/12 09:03:10;;;;;;;5.63;1.58;;;10.10;71.80;;;;;;5023617;28;20067;-75
2023/04/12 09:05:35;;;;;;;3.70;1.30;;;10.10;72.20;;;;;;5048368;28;20021;-73
2023/04/12 09:08:01;;;;;;;6.40;1.60;;;10.10;72.40;;;;;;5015964;28;20069;-74
2023/04/12 09:10:35;;;;;;;3.55;1.33;;;10.00;72.80;;;;;;5027048;28;20029;-73
2023/04/12 09:13:02;;;;;;;4.88;1.60;;;9.80;71.80;;;;;;5022990;28;20033;-73
2023/04/12 09:15:29;;;;;;;6.22;1.40;;;9.80;72.90;;;;;;5023581;28;20095;-75
2023/04/12 09:18:06;;;;;;;3.63;1.30;;;9.70;72.90;;;;;;5024734;28;20435;-74
2023/04/12 09:20:31;;;;;;;9.10;1.77;;;9.60;72.60;;;;;;5027825;28;20548;-75
2023/04/12 09:22:57;;;;;;;6.20;1.25;;;9.60;72.80;;;;;;5026375;28;20053;-73
2023/04/12 09:25:38;;;;;;;4.25;1.20;;;9.60;73.00;;;;;;5023710;28;20450;-74
2023/04/12 09:28:18;;;;;;;4.18;1.42;;;9.60;73.50;;;;;;5026549;28;20088;-74
2023/04/12 09:30:43;;;;;;;2.70;1.13;;;9.60;74.00;;;;;;5028807;28;20029;-73
2023/04/12 09:33:12;;;;;;;5.32;1.40;;;9.60;74.00;;;;;;5027527;28;20099;-74
2023/04/12 09:35:37;;;;;;;4.65;1.40;;;9.60;73.10;;;;;;5027569;28;20408;-73
2023/04/12 09:38:08;;;;;;;4.07;1.48;;;9.60;73.50;;;;;;5027353;28;20022;-74
2023/04/12 09:40:37;;;;;;;4.07;1.50;;;9.60;72.80;;;;;;5026163;28;20037;-74
2023/04/12 09:43:03;;;;;;;5.05;1.08;;;9.70;73.40;;;;;;5027752;28;20057;-73
2023/04/12 09:45:30;;;;;;;7.47;1.45;;;9.80;74.40;;;;;;5028658;28;20081;-75
2023/04/12 09:47:56;;;;;;;7.28;1.70;;;9.70;73.00;;;;;;5026838;28;20047;-73
2023/04/12 09:50:27;;;;;;;6.88;1.60;;;9.70;73.60;;;;;;5027690;28;20104;-74
2023/04/12 09:52:54;;;;;;;5.22;1.38;;;9.80;75.20;;;;;;5025690;28;20104;-74
2023/04/12 09:55:24;;;;;;;6.25;1.48;;;9.70;75.50;;;;;;5024154;28;20114;-74
2023/04/12 09:57:52;;;;;;;6.55;1.42;;;9.70;74.70;;;;;;5026297;28;20031;-74
2023/04/12 10:00:18;;;;;;;4.47;1.73;;;9.70;75.50;;;;;;5030843;28;20036;-74
2023/04/12 10:02:46;;;;;;;6.57;1.77;;;9.60;75.40;;;;;;5028546;28;20077;-74
2023/04/12 10:05:14;;;;;;;6.50;1.60;;;9.50;77.10;;;;;;5021844;28;20117;-74
2023/04/12 10:07:43;;;;;;;5.68;1.70;;;9.40;78.40;;;;;;5016832;28;20446;-74
2023/04/12 10:10:13;;;;;;;4.43;1.70;;;9.30;77.80;;;;;;5019062;28;20066;-73
2023/04/12 10:12:40;;;;;;;4.28;1.58;;;9.10;80.20;;;;;;5026701;28;20104;-73
2023/04/12 10:15:11;;;;;;;6.20;1.42;;;9.00;80.20;;;;;;5009315;28;20486;-74
2023/04/12 10:17:42;;;;;;;5.45;1.80;;;9.00;80.80;;;;;;5024071;28;20452;-73
2023/04/12 10:20:08;;;;;;;5.38;1.80;;;9.00;82.30;;;;;;5027103;28;20108;-74
2023/04/12 10:22:34;;;;;;;4.90;1.60;;;8.90;83.30;;;;;;5021277;28;20053;-73
2023/04/12 10:25:00;;;;;;;5.78;2.05;;;8.90;84.50;;;;;;5021473;28;20371;-73
2023/04/12 10:27:27;;;;;;;9.85;1.98;;;8.90;84.40;;;;;;5010552;28;20099;-73
2023/04/12 10:29:52;;;;;;;4.35;1.42;;;8.80;85.80;;;;;;5019860;28;20107;-74
2023/04/12 10:32:23;;;;;;;4.18;1.63;;;8.80;84.00;;;;;;5025425;28;20034;-73
2023/04/12 10:34:55;;;;;;;4.60;1.70;;;8.70;84.80;;;;;;5026475;28;20323;-73
2023/04/12 10:37:21;;;;;;;7.40;2.58;;;8.70;85.90;;;;;;5025721;28;20262;-73
2023/04/12 10:39:53;;;;;;;8.07;2.03;;;8.60;85.10;;;;;;5025138;28;20365;-75
2023/04/12 10:42:23;;;;;;;4.68;1.70;;;8.50;86.10;;;;;;5016889;28;20341;-74
2023/04/12 10:44:51;;;;;;;9.70;2.28;;;8.60;86.70;;;;;;5027053;28;20382;-74
2023/04/12 10:47:48;;;;;;;7.25;2.25;;;8.50;87.20;;;;;;5027073;28;20176;-73
2023/04/12 10:50:28;;;;;;;9.48;2.25;;;8.40;87.30;;;;;;5026242;28;20072;-73
2023/04/12 10:53:11;;;;;;;10.18;2.30;;;8.30;88.80;;;;;;5025306;28;20037;-73
2023/04/12 10:55:37;;;;;;;7.97;2.55;;;8.30;89.90;;;;;;5024496;28;20434;-74
2023/04/12 10:58:03;;;;;;;6.03;2.17;;;8.20;90.80;;;;;;5027012;28;20017;-73
2023/04/12 11:00:57;;;;;;;7.93;2.33;;;8.10;91.90;;;;;;5032104;28;20094;-73
2023/04/12 11:03:26;;;;;;;6.03;2.53;;;8.10;92.30;;;;;;5014559;28;20037;-74
2023/04/12 11:06:03;;;;;;;6.93;2.40;;;7.90;92.10;;;;;;5025110;28;20075;-74
2023/04/12 11:08:29;;;;;;;5.70;2.20;;;7.90;92.20;;;;;;5012174;28;20447;-74
2023/04/12 11:11:00;;;;;;;8.82;2.75;;;7.80;92.60;;;;;;5017046;28;20068;-72
2023/04/12 11:13:26;;;;;;;6.88;2.05;;;7.80;92.50;;;;;;5024824;28;20049;-71
2023/04/12 11:15:55;;;;;;;8.40;2.90;;;7.80;93.00;;;;;;5026533;28;20091;-71
2023/04/12 11:18:21;;;;;;;4.45;2.20;;;7.70;93.00;;;;;;5026725;28;20327;-72
2023/04/12 11:20:47;;;;;;;8.07;2.20;;;7.70;93.10;;;;;;5024967;28;20342;-72
2023/04/12 11:23:13;;;;;;;6.82;2.40;;;7.60;93.00;;;;;;5024324;28;20053;-72
2023/04/12 11:25:39;;;;;;;5.35;1.98;;;7.70;93.70;;;;;;5017791;28;20033;-73
2023/04/12 11:28:05;;;;;;;6.00;2.33;;;7.80;93.90;;;;;;5025207;28;20171;-73
2023/04/12 11:30:31;;;;;;;6.25;2.33;;;7.90;93.30;;;;;;5024936;28;20017;-74
2023/04/12 11:32:56;;;;;;;5.55;2.10;;;8.10;93.60;;;;;;5026894;28;20033;-72
2023/04/12 11:35:26;;;;;;;6.15;2.10;;;8.30;93.90;;;;;;5025575;28;20073;-72
2023/04/12 11:37:53;;;;;;;7.22;2.00;;;8.30;93.40;;;;;;5019751;28;20021;-72
2023/04/12 11:40:21;;;;;;;3.53;1.58;;;8.30;92.60;;;;;;5023530;28;20025;-72
2023/04/12 11:42:47;;;;;;;2.92;1.80;;;8.50;93.00;;;;;;5026106;28;20426;-72
2023/04/12 11:45:18;;;;;;;3.38;1.70;;;8.30;92.30;;;;;;5043733;28;20026;-72
2023/04/12 11:47:45;;;;;;;3.95;1.48;;;8.40;92.70;;;;;;5028792;28;20026;-72
2023/04/12 11:50:10;;;;;;;4.30;2.03;;;8.40;93.50;;;;;;5016620;28;20029;-72
2023/04/12 11:52:36;;;;;;;4.15;1.70;;;8.30;93.40;;;;;;5019642;28;20032;-72
2023/04/12 11:55:05;;;;;;;5.32;1.80;;;8.30;93.70;;;;;;5022268;28;20080;-72
2023/04/12 11:57:31;;;;;;;5.00;1.77;;;8.20;93.90;;;;;;5029376;28;20446;-72
2023/04/12 11:59:59;;;;;;;4.60;2.00;;;8.20;94.40;;;;;;5030292;28;20021;-72
2023/04/12 12:02:25;;;;;;;3.80;1.60;;;8.10;94.10;;;;;;5016226;28;20381;-74
2023/04/12 12:04:51;;;;;;;3.55;1.80;;;8.10;94.40;;;;;;5021801;28;20496;-72
2023/04/12 12:07:17;;;;;;;4.45;1.70;;;8.10;94.70;;;;;;5022393;28;20064;-74
2023/04/12 12:09:44;;;;;;;4.43;1.90;;;8.20;94.70;;;;;;5021777;28;20216;-73
2023/04/12 12:12:11;;;;;;;3.75;1.98;;;8.20;95.00;;;;;;5019969;28;20316;-72
2023/04/12 12:14:36;;;;;;;4.95;2.08;;;8.20;95.20;;;;;;5021317;28;20025;-73
2023/04/12 12:17:11;;;;;;;2.85;1.60;;;8.30;95.40;;;;;;5019750;28;20026;-73
2023/04/12 12:19:39;;;;;;;5.30;1.73;;;8.20;95.20;;;;;;5019155;28;20028;-73
2023/04/12 12:22:11;;;;;;;4.85;1.90;;;8.20;95.40;;;;;;5016766;28;20044;-72
2023/04/12 12:24:45;;;;;;;7.30;2.25;;;8.10;95.40;;;;;;5014541;28;20037;-73
2023/04/12 12:27:11;;;;;;;4.35;1.85;;;8.10;95.30;;;;;;5028660;28;20115;-72
2023/04/12 12:29:37;;;;;;;4.38;1.83;;;8.10;95.60;;;;;;5029261;28;20109;-80
2023/04/12 12:32:11;;;;;;;3.42;1.80;;;8.20;95.90;;;;;;5026889;28;20021;-76
2023/04/12 12:34:36;;;;;;;4.90;1.83;;;8.20;96.00;;;;;;5017270;28;20346;-75
2023/04/12 12:37:07;;;;;;;3.42;1.77;;;8.30;96.10;;;;;;5024584;28;20108;-75
2023/04/12 12:39:32;;;;;;;3.73;2.00;;;8.40;96.10;;;;;;5021205;28;20132;-76
2023/04/12 12:41:59;;;;;;;6.30;2.30;;;8.50;96.10;;;;;;5026895;28;20498;-75
2023/04/12 12:44:24;;;;;;;7.22;2.40;;;8.60;95.60;;;;;;5029110;28;20361;-75
2023/04/12 12:46:50;;;;;;;5.93;2.20;;;8.70;95.50;;;;;;5024455;28;20039;-76
2023/04/12 12:49:16;;;;;;;4.88;2.45;;;9.00;96.00;;;;;;5025021;28;20029;-76
2023/04/12 12:51:41;;;;;;;5.85;2.13;;;9.10;95.70;;;;;;5023906;28;20053;-75
2023/04/12 12:54:07;;;;;;;5.70;2.20;;;9.10;95.10;;;;;;5012695;28;20072;-76
2023/04/12 12:56:34;;;;;;;4.80;2.28;;;9.00;94.70;;;;;;5015848;28;20147;-75